Time;durP1;ratioP1;P1;durP2;ratioP2;P2;SDS_P1;SDS_P2;PMS_P1;PMS_P2;Temp;Humidity;BMP_temperature;BMP_pressure;BME280_temperature;BME280_humidity;BME280_pressure;Samples;Min_cycle;Max_cycle;Signal;HPM_P1;HPM_P2
2022/06/25 00:01:46;;;;;;;7.03;1.75;;;;;;;27.63;25.24;98139.63;4501948;31;20430;-80
2022/06/25 00:06:56;;;;;;;4.72;1.65;;;;;;;27.60;25.17;98131.94;4501835;31;20127;-80
2022/06/25 00:09:22;;;;;;;6.40;1.60;;;;;;;27.56;25.25;98146.91;4487300;31;20088;-79
2022/06/25 00:14:32;;;;;;;6.95;1.75;;;;;;;27.57;25.34;98161.28;4501575;31;20458;-80
2022/06/25 00:16:57;;;;;;;8.95;2.10;;;;;;;27.51;25.45;98164.84;4501381;31;20093;-81
2022/06/25 00:19:23;;;;;;;5.50;1.73;;;;;;;27.49;25.40;98158.78;4487026;31;20114;-81
2022/06/25 00:21:52;;;;;;;6.10;1.62;;;;;;;27.53;25.39;98146.50;4501418;31;20088;-80
2022/06/25 00:24:17;;;;;;;7.05;1.80;;;;;;;27.37;25.62;98153.16;4501338;31;20124;-81
2022/06/25 00:26:43;;;;;;;5.65;1.92;;;;;;;27.39;25.62;98151.06;4487097;31;20144;-81
2022/06/25 00:29:10;;;;;;;5.78;1.70;;;;;;;27.35;25.84;98149.81;4501253;31;20088;-80
2022/06/25 00:31:38;;;;;;;6.75;1.90;;;;;;;27.34;25.81;98148.16;4501313;31;20142;-81
2022/06/25 00:34:04;;;;;;;6.22;1.90;;;;;;;27.24;26.02;98154.81;4488611;31;20107;-80
2022/06/25 00:36:30;;;;;;;6.82;1.70;;;;;;;27.23;26.13;98149.56;4489246;31;20126;-80
2022/06/25 00:38:55;;;;;;;5.22;1.80;;;;;;;27.16;26.15;98151.44;4503656;31;20092;-80
2022/06/25 00:41:21;;;;;;;5.75;1.80;;;;;;;27.13;26.10;98155.38;4503519;31;20169;-81
2022/06/25 00:43:46;;;;;;;6.03;1.77;;;;;;;27.16;26.05;98152.28;4503651;31;20437;-81
2022/06/25 00:46:12;;;;;;;5.15;1.90;;;;;;;27.13;26.12;98149.97;4503608;31;20092;-80
2022/06/25 00:48:37;;;;;;;5.80;1.70;;;;;;;27.13;26.11;98149.16;4503507;31;20419;-80
2022/06/25 00:51:14;;;;;;;6.20;1.90;;;;;;;27.12;26.11;98156.44;4503638;31;20076;-80
2022/06/25 00:53:45;;;;;;;7.12;2.00;;;;;;;27.17;26.25;98163.94;4503838;31;20104;-80
2022/06/25 00:56:12;;;;;;;6.10;1.90;;;;;;;27.21;27.21;98155.19;4503832;31;20427;-80
2022/06/25 00:58:43;;;;;;;5.25;1.80;;;;;;;27.14;27.62;98151.66;4489233;31;20112;-80
2022/06/25 01:01:09;;;;;;;8.50;2.17;;;;;;;27.13;28.15;98143.75;4489464;31;20131;-80
2022/06/25 01:03:36;;;;;;;6.00;1.80;;;;;;;27.14;28.53;98158.91;4503700;31;20092;-80
2022/06/25 01:06:02;;;;;;;5.77;1.80;;;;;;;27.11;29.26;98156.63;4489422;31;20126;-80
2022/06/25 01:08:28;;;;;;;5.77;1.97;;;;;;;27.11;29.42;98157.47;4503639;31;20504;-80
2022/06/25 01:10:53;;;;;;;5.80;1.92;;;;;;;27.11;29.53;98160.16;4503656;31;20092;-80
2022/06/25 01:13:22;;;;;;;4.93;1.80;;;;;;;27.05;29.61;98163.69;4503542;31;20080;-80
2022/06/25 01:15:48;;;;;;;6.93;1.87;;;;;;;27.01;29.67;98160.56;4489454;31;20116;-80
2022/06/25 01:18:14;;;;;;;5.93;1.80;;;;;;;27.02;29.39;98164.09;4503663;31;20084;-80
2022/06/25 01:20:42;;;;;;;5.55;1.80;;;;;;;26.99;29.30;98170.75;4503570;31;20317;-80
2022/06/25 01:23:08;;;;;;;5.62;2.10;;;;;;;27.00;28.95;98167.00;4489493;31;20167;-80
2022/06/25 01:25:35;;;;;;;6.22;1.90;;;;;;;27.00;28.66;98167.00;4503524;31;20076;-80
2022/06/25 01:28:01;;;;;;;4.07;1.58;;;;;;;27.01;28.48;98171.37;4489260;31;20127;-79
2022/06/25 01:30:27;;;;;;;6.37;1.80;;;;;;;27.04;28.43;98170.97;4503560;31;20135;-81
2022/06/25 01:32:52;;;;;;;6.62;2.30;;;;;;;27.04;28.40;98176.38;4489170;31;20147;-80
2022/06/25 01:35:18;;;;;;;4.53;1.90;;;;;;;27.05;28.30;98180.75;4503553;31;20083;-80
2022/06/25 01:37:44;;;;;;;5.20;1.65;;;;;;;27.02;28.38;98172.19;4489083;31;20102;-80
2022/06/25 01:40:10;;;;;;;5.70;1.83;;;;;;;27.01;28.32;98176.78;4503355;31;20127;-80
2022/06/25 01:45:19;;;;;;;8.20;1.90;;;;;;;27.00;28.42;98176.97;4490682;31;20506;-80
2022/06/25 01:47:45;;;;;;;7.85;1.92;;;;;;;26.99;28.73;98168.03;4503108;31;20130;-79
2022/06/25 01:50:11;;;;;;;16.40;2.22;;;;;;;26.99;29.44;98159.94;4503137;31;20115;-79
2022/06/25 01:52:37;;;;;;;17.60;3.92;;;;;;;26.98;29.57;98166.38;4503061;31;20118;-80
2022/06/25 01:55:03;;;;;;;13.38;2.40;;;;;;;26.96;30.03;98162.22;4503208;31;20087;-80
2022/06/25 01:57:28;;;;;;;9.40;2.30;;;;;;;26.99;31.26;98164.53;4502882;31;20218;-80
2022/06/25 01:59:54;;;;;;;7.85;2.10;;;;;;;26.96;32.10;98173.84;4488683;31;20107;-80
2022/06/25 02:02:20;;;;;;;6.95;1.90;;;;;;;26.88;33.39;98169.47;4488606;31;20114;-80
2022/06/25 02:04:45;;;;;;;6.35;1.90;;;;;;;26.84;33.26;98168.22;4502975;31;20101;-80
2022/06/25 02:07:11;;;;;;;7.57;1.90;;;;;;;26.78;33.46;98166.31;4488601;31;20145;-79
2022/06/25 02:09:36;;;;;;;10.68;2.00;;;;;;;26.73;33.44;98159.84;4488699;31;20124;-80
2022/06/25 02:12:03;;;;;;;6.28;2.00;;;;;;;26.69;32.73;98167.53;4503084;31;20092;-80
2022/06/25 02:14:29;;;;;;;5.82;2.05;;;;;;;26.68;32.52;98166.72;4503082;31;20592;-80
2022/06/25 02:16:54;;;;;;;4.45;1.70;;;;;;;26.65;32.47;98169.81;4502827;31;20102;-80
2022/06/25 02:19:20;;;;;;;5.75;1.95;;;;;;;26.61;31.97;98173.13;4502917;31;20136;-80
2022/06/25 02:21:45;;;;;;;7.45;1.77;;;;;;;26.59;31.35;98167.09;4488576;31;20360;-79
2022/06/25 02:24:10;;;;;;;7.28;1.95;;;;;;;26.55;31.05;98165.81;4502816;31;20123;-80
2022/06/25 02:26:36;;;;;;;6.68;2.33;;;;;;;26.51;30.85;98169.94;4502950;31;20087;-80
2022/06/25 02:29:02;;;;;;;5.18;2.00;;;;;;;26.49;30.48;98168.25;4502940;31;20092;-79
2022/06/25 02:31:28;;;;;;;6.60;1.77;;;;;;;26.45;30.43;98175.09;4488454;31;20460;-80
2022/06/25 02:33:54;;;;;;;5.32;1.80;;;;;;;26.42;30.73;98172.78;4502915;31;20088;-79
2022/06/25 02:36:19;;;;;;;5.28;1.77;;;;;;;26.41;31.11;98170.31;4502723;31;20116;-79
2022/06/25 02:38:44;;;;;;;8.88;2.10;;;;;;;26.39;31.34;98169.69;4502848;31;20424;-79
2022/06/25 02:41:10;;;;;;;5.78;1.85;;;;;;;26.36;31.18;98160.09;4488244;31;20126;-79
2022/06/25 02:43:35;;;;;;;7.78;2.08;;;;;;;26.30;30.62;98163.59;4502925;31;20118;-79
2022/06/25 02:46:01;;;;;;;6.78;1.90;;;;;;;26.25;30.70;98164.22;4502673;31;20103;-80
2022/06/25 02:48:26;;;;;;;6.20;1.95;;;;;;;26.26;31.00;98157.75;4502717;31;20072;-79
2022/06/25 02:50:52;;;;;;;8.35;2.08;;;;;;;26.21;31.09;98165.66;4488189;31;20141;-79
2022/06/25 02:53:17;;;;;;;7.47;2.30;;;;;;;26.15;30.69;98163.72;4502722;31;20091;-80
2022/06/25 03:01:11;;;;;;;6.43;1.85;;;;;;;26.02;30.99;98177.13;4502747;31;20147;-80
2022/06/25 03:03:36;;;;;;;6.03;2.20;;;;;;;26.05;30.94;98176.75;4502621;31;20088;-80
2022/06/25 03:06:02;;;;;;;7.85;2.12;;;;;;;26.04;31.06;98177.78;4502437;31;20084;-80
2022/06/25 03:08:28;;;;;;;5.82;1.98;;;;;;;26.05;31.38;98176.75;4502530;31;20123;-80
2022/06/25 03:10:54;;;;;;;6.50;2.05;;;;;;;26.11;31.61;98181.34;4502345;31;20084;-80
2022/06/25 03:13:19;;;;;;;7.70;2.30;;;;;;;26.10;31.66;98179.69;4502458;31;20092;-80
2022/06/25 03:15:45;;;;;;;5.15;2.03;;;;;;;26.11;31.66;98178.66;4502418;31;20146;-80
2022/06/25 03:18:10;;;;;;;7.55;2.00;;;;;;;26.12;30.98;98177.63;4502460;31;20148;-79
2022/06/25 03:20:36;;;;;;;4.35;1.80;;;;;;;26.17;31.23;98183.25;4502643;31;20377;-79
2022/06/25 03:23:01;;;;;;;6.85;1.95;;;;;;;26.18;31.22;98176.00;4502705;31;20107;-80
2022/06/25 03:25:26;;;;;;;5.87;1.90;;;;;;;26.21;31.16;98170.19;4488155;31;20324;-79
2022/06/25 03:27:52;;;;;;;9.07;2.03;;;;;;;26.22;30.97;98174.56;4502447;31;20075;-80
2022/06/25 03:30:17;;;;;;;4.85;1.90;;;;;;;26.27;30.65;98172.13;4488029;31;20128;-79
2022/06/25 03:32:43;;;;;;;4.90;1.73;;;;;;;26.29;31.25;98162.78;4502139;31;20139;-80
2022/06/25 03:35:08;;;;;;;7.60;1.90;;;;;;;26.27;31.54;98161.31;4502064;31;20156;-79
2022/06/25 03:37:33;;;;;;;5.85;2.20;;;;;;;26.22;31.38;98161.06;4501874;31;20394;-79
2022/06/25 03:39:59;;;;;;;6.25;2.05;;;;;;;26.28;31.07;98171.06;4502075;31;20468;-79
2022/06/25 03:42:25;;;;;;;8.65;1.83;;;;;;;26.33;30.79;98162.34;4501913;31;20148;-79
2022/06/25 03:44:50;;;;;;;7.72;2.20;;;;;;;26.38;30.45;98168.81;4501922;31;20091;-80
2022/06/25 03:47:16;;;;;;;5.30;1.90;;;;;;;26.50;30.09;98174.50;4502067;31;20110;-80
2022/06/25 03:49:41;;;;;;;6.43;1.90;;;;;;;26.65;30.22;98175.19;4487460;31;20375;-80
2022/06/25 03:52:07;;;;;;;7.10;2.15;;;;;;;26.81;30.63;98179.44;4501873;31;20123;-80
2022/06/25 03:54:32;;;;;;;5.12;1.90;;;;;;;26.96;30.87;98168.44;4501757;31;20170;-79
2022/06/25 03:56:58;;;;;;;3.97;1.62;;;;;;;27.14;30.37;98175.12;4487529;31;20466;-79
2022/06/25 03:59:23;;;;;;;8.80;2.28;;;;;;;27.30;29.80;98173.97;4501806;31;20089;-80
2022/06/25 04:01:49;;;;;;;6.87;2.28;;;;;;;27.47;29.85;98180.66;4502077;31;20424;-80
2022/06/25 04:04:14;;;;;;;6.25;2.10;;;;;;;27.60;29.95;98187.91;4502066;31;20137;-80
2022/06/25 04:06:40;;;;;;;7.35;2.30;;;;;;;27.74;29.69;98181.47;4502071;31;20084;-80
2022/06/25 04:09:05;;;;;;;6.85;2.30;;;;;;;27.74;29.17;98180.63;4476241;31;20096;-81
2022/06/25 04:11:31;;;;;;;6.75;2.05;;;;;;;27.70;28.62;98179.37;4503907;31;20141;-81
2022/06/25 04:13:56;;;;;;;7.57;1.92;;;;;;;27.70;28.81;98182.06;4489499;31;20153;-81
2022/06/25 04:16:22;;;;;;;7.35;1.95;;;;;;;27.49;29.80;98178.56;4503754;31;20154;-80
2022/06/25 04:18:48;;;;;;;5.85;2.05;;;;;;;27.63;30.37;98187.50;4489471;31;20104;-81
2022/06/25 04:21:14;;;;;;;4.97;1.85;;;;;;;27.52;30.52;98188.13;4503680;31;20341;-80
2022/06/25 04:23:39;;;;;;;5.15;1.70;;;;;;;27.46;29.97;98189.78;4489413;31;20106;-80
2022/06/25 04:26:05;;;;;;;6.15;2.12;;;;;;;27.51;30.56;98190.00;4489347;31;20107;-80
2022/06/25 04:31:15;;;;;;;4.35;1.95;;;;;;;27.67;31.30;98196.88;4503765;31;20182;-80
2022/06/25 04:33:40;;;;;;;5.40;1.95;;;;;;;27.76;31.55;98198.34;4503498;31;20075;-80
2022/06/25 04:36:06;;;;;;;6.55;2.08;;;;;;;27.82;31.83;98194.78;4503644;31;20098;-80
2022/06/25 04:38:31;;;;;;;7.53;2.15;;;;;;;27.95;30.85;98187.72;4503691;31;20135;-79
2022/06/25 04:40:57;;;;;;;5.40;1.90;;;;;;;27.94;30.39;98186.87;4503746;31;20366;-80
2022/06/25 04:43:23;;;;;;;9.23;2.45;;;;;;;28.02;30.04;98186.66;4503611;31;20126;-80
2022/06/25 04:45:49;;;;;;;11.85;2.40;;;;;;;28.08;29.76;98198.53;4503665;31;20079;-80
2022/06/25 04:48:15;;;;;;;5.30;2.00;;;;;;;28.18;29.36;98212.50;4503626;31;20145;-77
2022/06/25 04:50:43;;;;;;;7.47;2.10;;;;;;;28.23;29.63;98207.25;4503487;31;20139;-80
2022/06/25 04:53:09;;;;;;;6.65;1.90;;;;;;;28.27;29.31;98202.25;4489446;31;20588;-80
2022/06/25 04:55:34;;;;;;;7.03;2.20;;;;;;;28.21;29.51;98213.94;4503724;31;20083;-79
2022/06/25 04:58:00;;;;;;;6.50;2.45;;;;;;;28.14;28.96;98222.06;4488924;31;20440;-79
2022/06/25 05:00:25;;;;;;;5.72;2.15;;;;;;;28.17;28.36;98218.09;4503939;31;20088;-79
2022/06/25 05:02:50;;;;;;;6.85;1.90;;;;;;;28.45;28.07;98223.25;4489342;31;20137;-79
2022/06/25 05:05:16;;;;;;;8.70;2.42;;;;;;;28.71;28.51;98213.41;4503792;31;20080;-79
2022/06/25 05:07:41;;;;;;;6.90;2.12;;;;;;;29.02;28.19;98213.47;4503766;31;20092;-78
2022/06/25 05:10:07;;;;;;;9.20;2.20;;;;;;;29.18;27.44;98214.03;4503791;31;20081;-78
2022/06/25 05:15:17;;;;;;;5.97;2.22;;;;;;;29.24;27.24;98215.88;4503388;31;20465;-78
2022/06/25 05:17:42;;;;;;;6.43;2.10;;;;;;;29.34;27.36;98205.38;4503280;31;20088;-78
2022/06/25 05:20:09;;;;;;;6.65;2.30;;;;;;;29.27;27.59;98212.72;4502712;31;20125;-79
2022/06/25 05:22:34;;;;;;;6.93;2.30;;;;;;;29.42;27.47;98215.16;4503448;31;20534;-78
2022/06/25 05:25:00;;;;;;;9.18;2.60;;;;;;;29.62;27.14;98211.44;4495631;31;20103;-77
2022/06/25 05:27:27;;;;;;;6.07;2.00;;;;;;;29.87;26.74;98209.59;4491752;31;20119;-79
2022/06/25 05:29:53;;;;;;;6.07;2.00;;;;;;;30.09;26.84;98220.88;4487888;31;20447;-78
2022/06/25 05:32:19;;;;;;;5.45;2.00;;;;;;;30.20;26.69;98208.44;4486892;32;20144;-79
2022/06/25 05:34:44;;;;;;;7.37;2.22;;;;;;;30.56;26.03;98221.25;4486652;32;20374;-78
2022/06/25 05:37:09;;;;;;;8.63;2.22;;;;;;;30.83;25.69;98210.06;4486778;32;20131;-79
2022/06/25 05:39:35;;;;;;;6.97;2.37;;;;;;;31.03;25.07;98217.16;4499567;31;20091;-79
2022/06/25 05:42:00;;;;;;;7.85;2.35;;;;;;;31.26;24.75;98228.13;4487082;31;20128;-78
2022/06/25 05:44:25;;;;;;;5.65;2.00;;;;;;;31.22;24.77;98224.22;4486774;31;20108;-80
2022/06/25 05:46:51;;;;;;;6.95;2.20;;;;;;;31.39;24.83;98218.09;4480200;32;20267;-78
2022/06/25 05:49:16;;;;;;;6.53;2.30;;;;;;;31.39;24.85;98218.09;4486876;31;20092;-77
2022/06/25 05:51:42;;;;;;;7.80;2.47;;;;;;;31.49;24.60;98223.88;4489896;31;20119;-79
2022/06/25 05:54:07;;;;;;;16.67;3.58;;;;;;;31.44;24.53;98221.78;4486553;31;20452;-79
2022/06/25 05:56:33;;;;;;;6.35;2.30;;;;;;;31.56;25.00;98216.41;4486368;32;20122;-80
2022/06/25 05:58:58;;;;;;;7.90;2.28;;;;;;;31.55;24.67;98225.66;4486275;31;20118;-81
2022/06/25 06:01:23;;;;;;;7.93;2.45;;;;;;;31.60;24.66;98222.22;4486712;32;20096;-80
2022/06/25 06:03:49;;;;;;;6.35;2.30;;;;;;;31.79;24.42;98223.78;4486582;31;20345;-80
2022/06/25 06:06:14;;;;;;;6.57;2.30;;;;;;;31.89;24.21;98232.22;4486609;31;20109;-80
2022/06/25 06:08:40;;;;;;;8.32;2.50;;;;;;;31.78;24.75;98238.47;4487072;31;20088;-80
2022/06/25 06:11:05;;;;;;;6.40;2.30;;;;;;;31.85;24.58;98231.03;4489621;31;20072;-80
2022/06/25 06:13:30;;;;;;;10.63;2.58;;;;;;;31.91;24.45;98231.97;4488336;31;20100;-80
2022/06/25 06:15:56;;;;;;;6.00;2.05;;;;;;;31.74;24.07;98240.03;4488214;31;20356;-79
2022/06/25 06:18:21;;;;;;;5.55;2.40;;;;;;;31.73;24.36;98233.72;4488599;31;20366;-80
2022/06/25 06:20:47;;;;;;;17.92;3.20;;;;;;;31.71;24.55;98233.13;4486350;32;20088;-80
2022/06/25 06:23:12;;;;;;;7.55;2.30;;;;;;;31.75;24.42;98228.03;4486766;31;20089;-80
2022/06/25 06:25:38;;;;;;;7.80;2.40;;;;;;;31.75;24.11;98236.22;4496973;31;20096;-80
2022/06/25 06:28:03;;;;;;;6.32;2.15;;;;;;;31.84;24.59;98225.81;4477651;32;20137;-80
2022/06/25 06:30:28;;;;;;;9.27;2.60;;;;;;;31.97;24.48;98224.75;4486020;32;20080;-80
2022/06/25 06:32:54;;;;;;;7.10;2.25;;;;;;;31.86;24.38;98221.78;4490062;31;20181;-80
2022/06/25 06:35:20;;;;;;;8.18;2.28;;;;;;;31.67;24.41;98225.66;4487966;31;20411;-80
2022/06/25 06:37:46;;;;;;;8.37;2.27;;;;;;;31.79;24.67;98221.06;4487647;31;20092;-80
2022/06/25 06:40:11;;;;;;;9.02;2.30;;;;;;;31.78;24.75;98229.50;4489285;31;20111;-81
2022/06/25 06:42:37;;;;;;;14.07;2.70;;;;;;;31.89;24.88;98221.34;4486217;31;20140;-81
2022/06/25 06:45:03;;;;;;;9.00;2.42;;;;;;;31.98;24.83;98231.88;4489745;31;20120;-81
2022/06/25 06:47:29;;;;;;;14.87;2.50;;;;;;;31.91;24.83;98232.81;4477664;31;20101;-81
2022/06/25 06:49:54;;;;;;;11.27;2.40;;;;;;;31.92;25.00;98237.19;4487310;31;20425;-81
2022/06/25 06:52:19;;;;;;;6.78;2.50;;;;;;;32.00;25.31;98237.91;4486313;32;20083;-81
2022/06/25 06:54:45;;;;;;;9.07;2.60;;;;;;;32.03;24.72;98234.75;4485780;31;20134;-80
2022/06/25 06:57:10;;;;;;;7.60;2.85;;;;;;;31.88;25.11;98233.28;4482915;32;100989;-80
2022/06/25 06:59:36;;;;;;;7.62;2.55;;;;;;;31.54;25.44;98254.78;4474955;32;20092;-80
2022/06/25 07:02:01;;;;;;;7.62;2.20;;;;;;;31.54;25.90;98245.75;4486090;32;20119;-81
2022/06/25 07:04:27;;;;;;;6.90;2.40;;;;;;;31.47;26.51;98253.22;4471978;32;20135;-80
2022/06/25 07:06:52;;;;;;;7.95;2.67;;;;;;;31.52;26.72;98261.50;4486001;32;20096;-81
2022/06/25 07:09:17;;;;;;;10.63;2.70;;;;;;;31.35;26.31;98262.13;4482511;31;20351;-81
2022/06/25 07:11:43;;;;;;;6.55;2.60;;;;;;;31.36;26.96;98266.50;4488305;31;20084;-81
2022/06/25 07:14:08;;;;;;;20.37;2.97;;;;;;;30.87;27.98;98268.38;4486263;31;20104;-81
2022/06/25 07:16:34;;;;;;;7.12;2.75;;;;;;;31.03;28.03;98266.94;4485809;32;20096;-81
2022/06/25 07:19:01;;;;;;;10.32;3.03;;;;;;;30.89;28.34;98266.28;4485874;31;20084;-81
2022/06/25 07:21:27;;;;;;;7.43;2.80;;;;;;;30.92;28.63;98267.72;4485994;32;20076;-81
2022/06/25 07:23:53;;;;;;;11.73;2.80;;;;;;;30.83;28.57;98275.34;4486043;31;20200;-79
2022/06/25 07:26:20;;;;;;;9.18;3.30;;;;;;;30.91;28.38;98271.50;4486125;31;20463;-79
2022/06/25 07:28:46;;;;;;;8.85;2.83;;;;;;;30.78;29.04;98273.28;4471617;32;20357;-80
2022/06/25 07:31:11;;;;;;;10.27;3.30;;;;;;;30.93;28.97;98272.13;4485912;32;20129;-83
2022/06/25 07:33:37;;;;;;;9.70;2.67;;;;;;;30.64;28.96;98268.25;4484316;31;20096;-82
2022/06/25 07:36:03;;;;;;;7.20;2.87;;;;;;;30.34;29.67;98277.91;4485701;31;20080;-82
2022/06/25 07:38:29;;;;;;;9.85;3.85;;;;;;;30.42;30.19;98267.81;4485754;31;20124;-84
2022/06/25 07:40:54;;;;;;;11.38;4.70;;;;;;;30.54;31.61;98266.88;4471254;32;20099;-87
2022/06/25 07:43:20;;;;;;;11.75;4.60;;;;;;;30.47;33.77;98270.72;4487340;32;20089;-82
2022/06/25 07:45:45;;;;;;;10.00;4.53;;;;;;;30.32;34.58;98271.87;4500663;31;20127;-81
2022/06/25 07:48:11;;;;;;;11.48;4.87;;;;;;;30.33;34.49;98267.31;4487670;32;20135;-82
2022/06/25 07:53:20;;;;;;;9.70;4.30;;;;;;;30.61;34.56;98268.69;4487695;32;20118;-86
2022/06/25 07:55:46;;;;;;;10.60;4.65;;;;;;;30.80;34.67;98275.78;4487356;32;20089;-85
2022/06/25 07:58:12;;;;;;;11.35;4.28;;;;;;;30.85;34.61;98278.66;4485323;32;20160;-85
2022/06/25 08:00:38;;;;;;;10.52;4.55;;;;;;;31.02;34.46;98276.16;4487474;32;20080;-84
2022/06/25 08:03:03;;;;;;;12.32;4.75;;;;;;;30.92;34.64;98289.47;4487641;31;20118;-86
2022/06/25 08:05:28;;;;;;;10.55;4.72;;;;;;;30.85;34.97;98284.09;4487715;32;20138;-86
2022/06/25 08:07:54;;;;;;;11.18;4.45;;;;;;;31.05;35.02;98285.78;4487675;31;20087;-85
2022/06/25 08:10:21;;;;;;;10.65;4.78;;;;;;;31.18;35.18;98291.06;4487767;31;20111;-84
2022/06/25 08:12:46;;;;;;;;;;;;;;;31.18;34.28;98293.78;4488131;32;20088;-84
2022/06/25 08:15:12;;;;;;;12.80;4.70;;;;;;;31.10;34.19;98299.50;4487733;32;19976;-83
2022/06/25 08:17:38;;;;;;;10.30;4.22;;;;;;;30.94;34.16;98298.25;4487509;32;20103;-85
2022/06/25 08:20:03;;;;;;;11.12;4.53;;;;;;;31.06;34.03;98303.75;4473166;32;20096;-84
2022/06/25 08:22:29;;;;;;;10.20;4.25;;;;;;;31.12;33.55;98305.56;4487575;32;20091;-82
2022/06/25 08:24:56;;;;;;;10.20;4.70;;;;;;;31.21;33.16;98314.25;4487542;31;20130;-80
2022/06/25 08:27:22;;;;;;;25.40;5.28;;;;;;;30.97;33.00;98305.94;4487743;32;20106;-81
2022/06/25 08:29:47;;;;;;;9.93;4.20;;;;;;;30.93;33.53;98305.56;4475016;32;20107;-81
2022/06/25 08:32:13;;;;;;;10.13;4.20;;;;;;;31.07;33.64;98311.69;4487601;31;20085;-82
2022/06/25 08:34:38;;;;;;;12.18;4.40;;;;;;;30.91;33.77;98304.97;4487540;32;20084;-81
2022/06/25 08:37:05;;;;;;;11.32;4.20;;;;;;;31.03;33.75;98313.19;4487306;31;20120;-81
2022/06/25 08:39:31;;;;;;;17.35;4.65;;;;;;;31.18;33.47;98304.66;4487641;32;20093;-81
2022/06/25 08:42:00;;;;;;;10.10;4.03;;;;;;;31.43;33.32;98309.13;4473146;32;20101;-82
2022/06/25 08:44:25;;;;;;;11.40;3.95;;;;;;;31.64;33.48;98316.84;4487554;32;20084;-81
2022/06/25 08:46:51;;;;;;;10.15;3.90;;;;;;;31.82;33.69;98323.28;4473148;32;20106;-81
2022/06/25 08:49:18;;;;;;;8.73;3.60;;;;;;;32.03;33.78;98325.50;4487436;32;20088;-80
2022/06/25 08:51:44;;;;;;;9.65;3.62;;;;;;;32.07;33.71;98325.84;4486124;31;20119;-81
2022/06/25 08:54:10;;;;;;;10.40;3.62;;;;;;;32.13;33.95;98324.91;4472295;32;20458;-80
2022/06/25 08:56:36;;;;;;;9.07;3.33;;;;;;;32.06;34.10;98324.19;4486987;32;20085;-82
2022/06/25 08:59:02;;;;;;;7.45;3.10;;;;;;;32.03;34.41;98322.75;4495839;31;20115;-83
2022/06/25 09:01:27;;;;;;;9.27;3.65;;;;;;;31.86;34.51;98327.19;4491036;31;20439;-82
2022/06/25 09:03:53;;;;;;;9.57;3.80;;;;;;;31.85;34.84;98317.34;4487004;32;20088;-83
2022/06/25 09:06:21;;;;;;;9.15;3.20;;;;;;;31.88;34.82;98319.63;4472806;32;20103;-85
2022/06/25 09:09:11;;;;;;;17.87;4.12;;;;;;;31.63;35.14;98322.50;4472935;32;20100;-82
2022/06/25 09:11:55;;;;;;;11.73;3.75;;;;;;;31.53;35.30;98318.44;4487747;32;20111;-82
2022/06/25 09:14:27;;;;;;;9.13;3.60;;;;;;;31.38;35.84;98317.16;4487652;32;20097;-81
2022/06/25 09:17:06;;;;;;;9.63;3.37;;;;;;;31.24;35.64;98316.50;4487586;32;20114;-84
2022/06/25 09:19:40;;;;;;;11.12;3.80;;;;;;;31.21;36.35;98322.41;4487299;32;20114;-82
2022/06/25 09:22:14;;;;;;;14.02;3.62;;;;;;;31.21;36.17;98322.41;4487625;32;20149;-82
2022/06/25 09:24:42;;;;;;;11.05;3.87;;;;;;;31.08;36.53;98324.25;4473331;32;20151;-81
2022/06/25 09:27:08;;;;;;;8.65;3.70;;;;;;;31.15;36.04;98315.97;4487522;32;20487;-81
2022/06/25 09:29:37;;;;;;;8.30;3.53;;;;;;;31.27;35.97;98326.94;4473196;32;20092;-80
2022/06/25 09:32:03;;;;;;;7.82;3.30;;;;;;;31.34;35.41;98322.25;4486722;32;20119;-81
2022/06/25 09:34:38;;;;;;;11.60;3.22;;;;;;;31.39;35.30;98325.13;4485109;32;20448;-81
2022/06/25 09:37:21;;;;;;;10.05;3.60;;;;;;;31.36;35.78;98322.84;4486582;32;20115;-81
2022/06/25 09:39:48;;;;;;;8.85;3.28;;;;;;;31.39;35.14;98322.38;4487413;32;20084;-81
2022/06/25 09:42:22;;;;;;;8.60;3.10;;;;;;;31.36;35.41;98318.22;4487444;32;20123;-81
2022/06/25 09:44:48;;;;;;;9.60;3.40;;;;;;;31.17;35.79;98324.75;4473332;32;20101;-81
2022/06/25 09:47:14;;;;;;;7.60;3.07;;;;;;;31.21;35.81;98328.66;4487265;32;20499;-81
2022/06/25 09:49:40;;;;;;;13.20;3.62;;;;;;;31.46;35.21;98320.41;4487459;32;20085;-81
2022/06/25 09:52:05;;;;;;;8.98;3.00;;;;;;;31.54;34.98;98328.28;4487312;32;20167;-81
2022/06/25 09:54:31;;;;;;;9.27;3.40;;;;;;;31.47;35.36;98324.81;4487434;32;20100;-81
2022/06/25 09:56:59;;;;;;;7.68;3.15;;;;;;;31.10;35.87;98326.72;4487321;32;20451;-81
2022/06/25 09:59:26;;;;;;;10.32;3.80;;;;;;;31.13;35.49;98326.25;4472830;32;20092;-81
2022/06/25 10:01:52;;;;;;;9.90;3.33;;;;;;;31.02;35.41;98318.84;4473143;32;20108;-81
2022/06/25 10:04:20;;;;;;;8.57;3.25;;;;;;;30.91;36.00;98331.34;4472591;32;20076;-81
2022/06/25 10:06:46;;;;;;;13.62;3.58;;;;;;;30.88;35.85;98329.03;4487345;32;20088;-81
2022/06/25 10:09:13;;;;;;;10.80;3.20;;;;;;;31.01;35.43;98326.19;4473079;32;20118;-82
2022/06/25 10:11:39;;;;;;;15.63;3.70;;;;;;;30.95;35.38;98325.22;4472990;32;20127;-81
2022/06/25 10:14:07;;;;;;;10.43;3.10;;;;;;;30.95;34.96;98322.50;4473003;32;20108;-81
2022/06/25 10:16:33;;;;;;;9.75;3.28;;;;;;;30.95;35.57;98324.41;4487035;32;20110;-81
2022/06/25 10:19:00;;;;;;;10.25;3.50;;;;;;;30.93;35.61;98315.63;4472972;32;20088;-81
2022/06/25 10:21:25;;;;;;;9.55;3.45;;;;;;;30.71;35.38;98317.91;4473256;32;20113;-81
2022/06/25 10:24:04;;;;;;;8.63;3.37;;;;;;;30.89;35.06;98311.69;4487436;32;20080;-81
2022/06/25 10:26:30;;;;;;;9.77;3.05;;;;;;;30.81;34.91;98309.22;4487542;32;20104;-81
2022/06/25 10:28:55;;;;;;;8.95;3.35;;;;;;;30.78;35.43;98305.09;4473114;32;20084;-81
2022/06/25 10:31:21;;;;;;;8.30;3.25;;;;;;;30.70;35.38;98310.84;4487330;32;20359;-81
2022/06/25 10:34:02;;;;;;;9.07;3.00;;;;;;;30.65;35.33;98308.78;4487248;32;20088;-81
2022/06/25 10:36:44;;;;;;;12.93;2.95;;;;;;;30.64;35.66;98307.13;4472931;32;20084;-82
2022/06/25 10:39:22;;;;;;;7.28;2.80;;;;;;;30.55;36.02;98300.31;4487048;32;20416;-81
2022/06/25 10:45:04;;;;;;;7.53;2.85;;;;;;;30.68;35.84;98297.47;4486040;32;20172;-81
2022/06/25 10:47:47;;;;;;;10.82;3.12;;;;;;;30.59;35.77;98304.25;4486952;32;20080;-81
2022/06/25 10:50:22;;;;;;;9.20;2.83;;;;;;;30.37;36.15;98298.41;4472644;32;20100;-81
2022/06/25 10:53:03;;;;;;;8.52;2.95;;;;;;;30.54;35.73;98301.37;4486893;32;20491;-82
2022/06/25 10:55:46;;;;;;;17.55;3.47;;;;;;;30.46;35.99;98294.34;4486901;32;20702;-81
2022/06/25 10:58:12;;;;;;;5.70;2.28;;;;;;;30.46;35.81;98290.78;4486848;32;20398;-81
2022/06/25 11:00:52;;;;;;;9.97;2.67;;;;;;;30.55;35.19;98290.25;4472661;32;20111;-81
2022/06/25 11:03:38;;;;;;;6.57;2.30;;;;;;;30.25;35.53;98284.69;4472712;32;20100;-81
2022/06/25 11:06:32;;;;;;;8.77;3.08;;;;;;;30.23;35.84;98286.81;4486933;32;20092;-81
2022/06/25 11:09:13;;;;;;;8.13;2.60;;;;;;;30.28;36.02;98284.22;4486721;32;20084;-82
2022/06/25 11:11:42;;;;;;;9.35;2.72;;;;;;;30.22;35.95;98287.84;4486808;32;20084;-81
2022/06/25 11:14:24;;;;;;;7.85;2.50;;;;;;;30.27;35.93;98284.44;4486728;32;20108;-81
2022/06/25 11:16:51;;;;;;;6.50;2.12;;;;;;;30.31;35.08;98289.25;4485675;32;20092;-81
2022/06/25 11:19:16;;;;;;;7.45;2.30;;;;;;;30.11;35.38;98286.66;4486727;32;20083;-81
2022/06/25 11:21:45;;;;;;;7.57;2.45;;;;;;;30.29;35.50;98290.47;4486621;32;20114;-81
2022/06/25 11:24:24;;;;;;;6.78;2.25;;;;;;;30.47;34.73;98290.56;4486531;32;20127;-81
2022/06/25 11:29:40;;;;;;;9.10;2.35;;;;;;;30.27;35.38;98293.44;4486588;32;20102;-81
2022/06/25 11:32:08;;;;;;;7.93;2.12;;;;;;;30.11;35.83;98291.28;4472184;32;20470;-81
2022/06/25 11:34:34;;;;;;;7.50;2.33;;;;;;;30.01;36.20;98299.94;4472181;32;20112;-81
2022/06/25 11:37:02;;;;;;;7.10;2.22;;;;;;;30.12;35.74;98287.53;4486340;32;20140;-81
2022/06/25 11:39:28;;;;;;;6.85;2.40;;;;;;;30.16;35.40;98291.44;4486261;32;20149;-81
2022/06/25 11:41:54;;;;;;;10.07;2.50;;;;;;;30.18;35.25;98292.88;4486194;32;20110;-81
2022/06/25 11:44:19;;;;;;;6.57;1.98;;;;;;;30.09;35.59;98296.09;4471889;32;20367;-81
2022/06/25 11:46:47;;;;;;;7.18;2.40;;;;;;;29.89;35.78;98288.94;4486271;32;20111;-81
2022/06/25 11:49:12;;;;;;;7.55;2.12;;;;;;;30.17;35.84;98285.81;4472029;32;20092;-81
2022/06/25 11:51:51;;;;;;;5.90;2.22;;;;;;;30.03;35.36;98286.94;4471866;32;20148;-81
2022/06/25 11:54:22;;;;;;;7.07;2.42;;;;;;;30.02;35.53;98289.88;4471873;32;20104;-81
2022/06/25 11:56:52;;;;;;;8.02;2.30;;;;;;;29.90;36.04;98282.47;4472070;32;20127;-81
2022/06/25 11:59:26;;;;;;;5.93;2.15;;;;;;;30.07;35.83;98279.19;4471726;32;20104;-84